Terminal Aerodrome Forecast
Issued by NWS

Home | Current Version | Previous Version | Text Only | Print | Product List | Glossary On
Versions: 1 2 3 4 5 6 7 8 9 10 11 12 13 14 15 16 17 18 19 20 21 22 23 24 25 26
885
FTUS41 KRLX 302338
TAFCKB
TAF
KCKB 302338Z 0100/0124 09008KT P6SM FEW060
     FM010100 09008KT P6SM BKN090
     FM010500 11004KT P6SM BKN023
     FM010600 11004KT P6SM BKN014
     FM010800 00000KT P6SM BKN010
     FM010900 00000KT P6SM BKN008
     FM011100 00000KT P6SM BKN005
     FM011600 20004KT P6SM SCT050=

USA.gov is the U.S. government's official web portal to all federal, state and local government web resources and services.